Time;durP1;ratioP1;P1;durP2;ratioP2;P2;SDS_P1;SDS_P2;PMS_P1;PMS_P2;Temp;Humidity;BMP_temperature;BMP_pressure;BME280_temperature;BME280_humidity;BME280_pressure;Samples;Min_cycle;Max_cycle;Signal;HPM_P1;HPM_P2
2023/05/08 00:00:47;;;;;;;6.43;2.00;;;;;;;12.12;100.00;101152.69;5017038;28;20034;-72
2023/05/08 00:03:12;;;;;;;6.22;1.70;;;;;;;12.14;100.00;101142.09;5016732;28;20034;-72
2023/05/08 00:05:40;;;;;;;4.95;1.80;;;;;;;12.15;100.00;101148.50;5000253;28;20546;-73
2023/05/08 00:08:06;;;;;;;6.90;1.83;;;;;;;12.19;100.00;101141.22;5016752;28;20033;-72
2023/05/08 00:10:31;;;;;;;4.85;1.90;;;;;;;12.19;100.00;101147.63;5016907;28;20027;-72
2023/05/08 00:12:57;;;;;;;5.60;2.20;;;;;;;12.24;100.00;101141.19;5018229;28;20072;-72
2023/05/08 00:15:22;;;;;;;4.30;1.75;;;;;;;12.26;100.00;101139.78;5045073;28;20095;-72
2023/05/08 00:17:48;;;;;;;7.70;1.60;;;;;;;12.26;100.00;101133.38;5003601;28;20458;-72
2023/05/08 00:20:13;;;;;;;4.38;1.70;;;;;;;12.28;100.00;101126.38;5024542;28;20029;-73
2023/05/08 00:22:39;;;;;;;5.68;1.80;;;;;;;12.29;100.00;101128.06;4984070;28;20418;-72
2023/05/08 00:25:05;;;;;;;4.22;1.92;;;;;;;12.30;100.00;101120.53;5016308;28;20022;-72
2023/05/08 00:27:31;;;;;;;4.65;2.00;;;;;;;12.33;100.00;101119.13;5016323;28;20026;-72
2023/05/08 00:29:57;;;;;;;6.75;2.22;;;;;;;12.34;100.00;101109.63;4967764;28;20505;-72
2023/05/08 00:32:23;;;;;;;4.13;1.67;;;;;;;12.35;100.00;101111.31;4999859;28;20028;-72
2023/05/08 00:34:48;;;;;;;4.68;2.20;;;;;;;12.38;100.00;101110.72;4999701;28;20034;-73
2023/05/08 00:37:13;;;;;;;7.07;2.35;;;;;;;12.39;100.00;101120.72;5016387;28;20460;-72
2023/05/08 00:39:39;;;;;;;5.68;1.80;;;;;;;12.41;100.00;101118.50;5025966;28;20029;-72
2023/05/08 00:42:04;;;;;;;6.32;2.30;;;;;;;12.43;100.00;101113.47;5003252;28;20030;-72
2023/05/08 00:44:30;;;;;;;4.03;2.08;;;;;;;12.44;100.00;101117.91;5016222;28;20406;-72
2023/05/08 00:46:55;;;;;;;7.22;2.08;;;;;;;12.47;100.00;101128.47;5004954;28;20030;-72
2023/05/08 00:49:21;;;;;;;7.22;2.00;;;;;;;12.48;100.00;101118.97;5015633;28;20105;-73
2023/05/08 00:51:48;;;;;;;5.95;1.90;;;;;;;12.47;100.00;101114.53;5015834;28;20061;-72
2023/05/08 00:54:13;;;;;;;4.82;2.22;;;;;;;12.49;100.00;101113.13;5019163;28;20033;-72
2023/05/08 00:56:39;;;;;;;5.20;2.00;;;;;;;12.51;100.00;101118.41;5002863;28;20037;-72
2023/05/08 00:59:09;;;;;;;5.82;1.75;;;;;;;12.51;100.00;101112.84;5019130;28;20041;-72
2023/05/08 01:01:37;;;;;;;3.78;1.60;;;;;;;12.52;100.00;101104.19;4986773;28;20030;-73
2023/05/08 01:04:03;;;;;;;7.10;1.90;;;;;;;12.50;100.00;101117.56;5010797;28;20116;-72
2023/05/08 01:06:29;;;;;;;6.45;2.13;;;;;;;12.53;100.00;101116.97;5031721;28;20050;-73
2023/05/08 01:08:54;;;;;;;6.40;2.15;;;;;;;12.55;100.00;101102.75;4967207;28;20473;-73
2023/05/08 01:11:22;;;;;;;4.60;1.85;;;;;;;12.57;100.00;101108.06;5015625;28;20033;-72
2023/05/08 01:13:54;;;;;;;6.97;2.08;;;;;;;12.55;100.00;101108.34;5016202;28;20433;-72
2023/05/08 01:16:45;;;;;;;9.57;1.95;;;;;;;12.58;100.00;101106.91;5015440;28;20033;-73
2023/05/08 01:19:14;;;;;;;5.53;1.67;;;;;;;12.59;100.00;101103.84;4982585;28;20037;-72
2023/05/08 01:21:59;;;;;;;4.60;1.65;;;;;;;12.60;100.00;101104.69;5015829;28;20045;-73
2023/05/08 01:24:50;;;;;;;5.10;1.92;;;;;;;12.59;100.00;101095.50;5000180;28;20030;-73
2023/05/08 01:27:22;;;;;;;5.97;1.67;;;;;;;12.61;100.00;101101.59;4984236;28;20084;-72
2023/05/08 01:30:01;;;;;;;6.22;2.13;;;;;;;12.64;100.00;101097.38;4999022;28;20368;-73
2023/05/08 01:32:38;;;;;;;5.35;1.80;;;;;;;12.62;100.00;101099.63;5016593;28;20030;-72
2023/05/08 01:35:09;;;;;;;3.60;1.83;;;;;;;12.62;100.00;101100.47;4999326;28;20036;-73
2023/05/08 01:37:59;;;;;;;5.03;1.77;;;;;;;12.63;100.00;101102.13;5015288;28;20034;-72
2023/05/08 01:40:31;;;;;;;6.38;1.60;;;;;;;12.65;100.00;101099.06;5031404;28;20037;-73
2023/05/08 01:43:03;;;;;;;4.28;1.80;;;;;;;12.66;100.00;101092.34;4987015;28;20036;-73
2023/05/08 01:45:34;;;;;;;6.15;1.65;;;;;;;12.66;100.00;101095.97;5019587;28;20026;-73
2023/05/08 01:48:07;;;;;;;3.80;1.65;;;;;;;12.66;100.00;101092.34;4975965;28;20026;-72
2023/05/08 01:50:38;;;;;;;5.15;2.00;;;;;;;12.65;100.00;101094.31;5019303;28;20373;-73
2023/05/08 01:53:09;;;;;;;3.03;1.77;;;;;;;12.67;100.00;101102.38;5002616;28;20044;-73
2023/05/08 01:55:35;;;;;;;3.90;1.63;;;;;;;12.65;100.00;101090.69;5002900;28;20069;-73
2023/05/08 01:58:01;;;;;;;3.72;1.65;;;;;;;12.68;100.00;101090.94;5002666;28;20041;-73
2023/05/08 02:00:27;;;;;;;7.90;1.95;;;;;;;12.69;100.00;101095.38;4987976;28;20026;-73
2023/05/08 02:02:53;;;;;;;10.40;1.92;;;;;;;12.69;100.00;101089.81;5013751;28;20108;-73
2023/05/08 02:05:22;;;;;;;5.78;2.13;;;;;;;12.67;100.00;101094.81;5009571;28;20486;-72
2023/05/08 02:07:48;;;;;;;5.05;1.88;;;;;;;12.70;100.00;101082.25;4999304;28;20104;-73
2023/05/08 02:10:13;;;;;;;8.57;1.80;;;;;;;12.68;100.00;101079.78;5015335;28;20037;-72
2023/05/08 02:12:39;;;;;;;4.75;1.60;;;;;;;12.71;100.00;101079.19;4983061;28;20037;-72
2023/05/08 02:15:05;;;;;;;4.15;1.77;;;;;;;12.68;100.00;101071.44;5014908;28;20030;-73
2023/05/08 02:17:30;;;;;;;3.83;1.92;;;;;;;12.70;100.00;101077.53;5016361;28;20486;-73
2023/05/08 02:19:57;;;;;;;3.08;1.50;;;;;;;12.69;100.00;101067.50;5018504;28;20061;-72
2023/05/08 02:22:22;;;;;;;4.93;1.80;;;;;;;12.70;100.00;101087.84;5002565;28;20073;-72
2023/05/08 02:24:47;;;;;;;7.93;1.98;;;;;;;12.69;100.00;101075.03;5018720;28;20034;-72
2023/05/08 02:27:13;;;;;;;4.38;1.50;;;;;;;12.69;100.00;101084.22;4986292;28;20041;-72
2023/05/08 02:29:38;;;;;;;4.90;1.80;;;;;;;12.69;100.00;101078.66;5002310;28;20034;-72
2023/05/08 02:32:05;;;;;;;4.22;2.10;;;;;;;12.69;100.00;101073.06;5038554;28;20033;-72
2023/05/08 02:34:30;;;;;;;4.03;1.50;;;;;;;12.70;100.00;101071.97;5018603;28;20026;-73
2023/05/08 02:36:56;;;;;;;5.40;1.70;;;;;;;12.68;100.00;101067.81;5019581;28;20030;-73
2023/05/08 02:39:21;;;;;;;5.35;1.85;;;;;;;12.69;100.00;101075.88;5025967;28;20029;-73
2023/05/08 02:41:47;;;;;;;4.68;1.70;;;;;;;12.67;100.00;101075.31;5051615;28;20060;-73
2023/05/08 02:44:12;;;;;;;6.13;1.90;;;;;;;12.67;100.00;101075.31;5018283;28;20498;-73
2023/05/08 02:46:48;;;;;;;5.38;2.28;;;;;;;12.69;100.00;101072.25;5005191;28;20018;-72
2023/05/08 02:49:29;;;;;;;4.53;2.00;;;;;;;12.68;100.00;101074.22;5017867;28;20030;-73
2023/05/08 02:52:06;;;;;;;5.25;1.73;;;;;;;12.69;100.00;101075.03;5019371;28;20497;-73
2023/05/08 02:54:57;;;;;;;4.53;2.05;;;;;;;12.70;100.00;101079.47;5018158;28;20390;-72
2023/05/08 02:57:35;;;;;;;5.38;1.50;;;;;;;12.68;100.00;101073.38;5018184;28;20546;-72
2023/05/08 03:00:19;;;;;;;6.85;2.05;;;;;;;12.66;100.00;101070.88;4969897;28;20034;-73
2023/05/08 03:03:16;;;;;;;6.30;1.70;;;;;;;12.67;100.00;101080.91;5002147;28;20101;-72
2023/05/08 03:05:46;;;;;;;6.65;1.67;;;;;;;12.69;100.00;101087.00;5002583;28;20053;-72
2023/05/08 03:08:17;;;;;;;7.38;1.60;;;;;;;12.67;100.00;101080.06;5002100;28;20449;-73
2023/05/08 03:10:44;;;;;;;6.05;1.83;;;;;;;12.65;100.00;101073.97;4985583;28;20093;-72
2023/05/08 03:13:10;;;;;;;5.40;1.60;;;;;;;12.66;100.00;101079.25;4986140;28;20085;-73
2023/05/08 03:15:46;;;;;;;3.10;1.40;;;;;;;12.67;100.00;101075.31;5047229;28;20500;-72
2023/05/08 03:18:14;;;;;;;3.13;1.75;;;;;;;12.67;100.00;101074.50;4994023;28;20029;-72
2023/05/08 03:20:42;;;;;;;5.50;1.70;;;;;;;12.68;100.00;101073.38;5050753;28;20470;-73
2023/05/08 03:23:08;;;;;;;4.03;1.60;;;;;;;12.67;100.00;101069.75;5001709;28;20033;-72
2023/05/08 03:25:34;;;;;;;4.82;1.60;;;;;;;12.66;100.00;101068.09;5001267;28;20122;-72
2023/05/08 03:27:59;;;;;;;4.53;1.60;;;;;;;12.65;100.00;101063.66;4984943;28;20033;-72
2023/05/08 03:30:25;;;;;;;3.60;1.60;;;;;;;12.65;100.00;101063.66;5017594;28;20033;-73
2023/05/08 03:32:51;;;;;;;4.10;1.75;;;;;;;12.64;100.00;101061.97;5001379;28;20497;-72
2023/05/08 03:35:16;;;;;;;4.68;1.50;;;;;;;12.64;100.00;101055.59;4990376;28;20033;-72
2023/05/08 03:37:42;;;;;;;7.32;1.70;;;;;;;12.63;100.00;101065.06;5017531;28;20359;-72
2023/05/08 03:40:08;;;;;;;4.22;1.30;;;;;;;12.65;100.00;101063.66;5013944;28;20033;-72
2023/05/08 03:42:33;;;;;;;5.50;1.83;;;;;;;12.65;100.00;101068.41;5001062;28;20488;-72
2023/05/08 03:44:59;;;;;;;5.47;1.92;;;;;;;12.64;100.00;101064.78;5017188;28;20026;-72
2023/05/08 03:47:27;;;;;;;4.43;1.75;;;;;;;12.64;100.00;101061.16;5006179;28;20029;-72
2023/05/08 03:49:52;;;;;;;4.20;1.50;;;;;;;12.63;100.00;101054.75;4969056;28;20025;-72
2023/05/08 03:52:18;;;;;;;5.78;1.50;;;;;;;12.64;100.00;101061.16;5017085;28;20045;-73
2023/05/08 03:54:43;;;;;;;5.40;1.63;;;;;;;12.62;100.00;101061.47;4968344;28;20034;-72
2023/05/08 03:57:09;;;;;;;2.83;2.10;;;;;;;12.65;100.00;101057.25;5017055;28;20037;-72
2023/05/08 03:59:47;;;;;;;8.80;1.83;;;;;;;12.64;100.00;101052.78;5000634;28;20124;-72
2023/05/08 04:02:35;;;;;;;2.38;1.58;;;;;;;12.65;100.00;101057.25;5000512;28;20125;-73
2023/05/08 04:05:17;;;;;;;6.53;1.85;;;;;;;12.65;100.00;101057.25;5016430;28;20057;-73
2023/05/08 04:07:49;;;;;;;3.60;1.75;;;;;;;12.63;100.00;101054.75;5000912;28;20030;-73
2023/05/08 04:10:23;;;;;;;5.33;1.83;;;;;;;12.64;100.00;101056.41;5016827;28;20026;-73
2023/05/08 04:13:07;;;;;;;5.63;1.92;;;;;;;12.65;100.00;101051.69;4985148;28;20275;-73
2023/05/08 04:15:34;;;;;;;4.75;1.92;;;;;;;12.65;100.00;101051.69;5030154;28;20040;-73
2023/05/08 04:18:11;;;;;;;5.95;1.90;;;;;;;12.63;100.00;101054.75;5017010;28;20069;-73
2023/05/08 04:20:38;;;;;;;5.90;1.70;;;;;;;12.63;100.00;101056.72;5000133;28;20034;-73
2023/05/08 04:23:03;;;;;;;5.97;2.20;;;;;;;12.63;100.00;101046.41;4984285;28;20048;-72
2023/05/08 04:25:29;;;;;;;5.53;2.30;;;;;;;12.65;100.00;101051.69;5021821;28;20022;-72
2023/05/08 04:27:56;;;;;;;3.92;1.67;;;;;;;12.64;100.00;101044.44;5000119;28;20030;-72
2023/05/08 04:30:21;;;;;;;4.78;2.10;;;;;;;12.65;100.00;101035.78;4999082;28;20037;-73
2023/05/08 04:32:47;;;;;;;10.48;2.30;;;;;;;12.62;100.00;101041.97;4995156;28;20392;-72
2023/05/08 04:35:12;;;;;;;5.93;2.33;;;;;;;12.64;100.00;101050.84;5015943;28;20057;-72
2023/05/08 04:37:38;;;;;;;5.63;2.30;;;;;;;12.62;100.00;101055.03;5017488;28;20037;-72
2023/05/08 04:40:04;;;;;;;5.28;1.95;;;;;;;12.60;100.00;101048.94;5012389;28;20036;-72
2023/05/08 04:42:29;;;;;;;7.40;2.50;;;;;;;12.62;100.00;101053.09;5017667;28;20034;-72
2023/05/08 04:44:55;;;;;;;6.18;2.42;;;;;;;12.64;100.00;101050.00;5000011;28;20474;-72
2023/05/08 04:47:20;;;;;;;5.75;2.55;;;;;;;12.66;100.00;101045.81;5024934;28;20072;-73
2023/05/08 04:49:46;;;;;;;3.95;2.20;;;;;;;12.65;100.00;101049.72;5002134;28;20025;-72
2023/05/08 04:52:11;;;;;;;4.15;2.00;;;;;;;12.66;100.00;101044.97;5056469;28;20044;-73
2023/05/08 04:54:37;;;;;;;5.93;2.30;;;;;;;12.64;100.00;101048.03;5028074;28;20033;-72
2023/05/08 04:57:03;;;;;;;4.38;2.20;;;;;;;12.67;100.00;101049.41;5020092;28;20041;-72
2023/05/08 04:59:28;;;;;;;4.82;2.40;;;;;;;12.67;100.00;101053.03;5003760;28;20033;-72
2023/05/08 05:01:55;;;;;;;5.72;2.40;;;;;;;12.69;100.00;101061.09;5021212;28;20033;-73
2023/05/08 05:04:21;;;;;;;3.97;1.95;;;;;;;12.67;100.00;101055.81;5003205;28;20033;-73
2023/05/08 05:06:46;;;;;;;3.78;2.08;;;;;;;12.69;100.00;101061.94;5003784;28;20518;-72
2023/05/08 05:09:12;;;;;;;4.35;2.45;;;;;;;12.70;100.00;101058.03;5017708;28;20103;-72
2023/05/08 05:11:37;;;;;;;6.05;2.40;;;;;;;12.72;100.00;101064.13;5017184;28;20585;-72
2023/05/08 05:14:03;;;;;;;4.43;2.40;;;;;;;12.74;100.00;101072.22;5017113;28;20037;-73
2023/05/08 05:16:28;;;;;;;7.57;2.60;;;;;;;12.77;100.00;101062.44;4999028;28;20133;-73
2023/05/08 05:18:54;;;;;;;9.20;2.30;;;;;;;12.78;100.00;101075.22;4998478;28;20042;-72
2023/05/08 05:21:19;;;;;;;4.78;2.40;;;;;;;12.81;100.00;101067.09;4999525;28;20391;-73
2023/05/08 05:23:45;;;;;;;5.60;2.30;;;;;;;12.82;100.00;101077.13;4982901;28;20033;-73
2023/05/08 05:26:10;;;;;;;5.03;2.25;;;;;;;12.86;100.00;101085.72;4999034;28;20040;-72
2023/05/08 05:28:36;;;;;;;8.63;2.42;;;;;;;12.86;100.00;101088.53;5015378;28;20037;-72
2023/05/08 05:31:01;;;;;;;5.65;2.30;;;;;;;12.91;100.00;101099.63;4999112;28;20033;-72
2023/05/08 05:33:27;;;;;;;4.32;2.40;;;;;;;12.92;100.00;101099.31;5015067;28;20034;-71
2023/05/08 05:35:52;;;;;;;3.88;2.10;;;;;;;12.98;100.00;101097.28;5016546;28;20032;-70
2023/05/08 05:38:18;;;;;;;5.30;2.25;;;;;;;12.99;100.00;101093.41;5030029;28;20040;-71
2023/05/08 05:40:43;;;;;;;9.82;2.60;;;;;;;13.01;100.00;101096.72;5028365;28;20510;-71
2023/05/08 05:43:08;;;;;;;6.72;2.35;;;;;;;13.04;100.00;101104.50;5016635;28;20634;-71
2023/05/08 05:45:35;;;;;;;6.95;2.53;;;;;;;13.08;100.00;101105.56;4998878;28;20096;-71
2023/05/08 05:48:01;;;;;;;7.05;2.60;;;;;;;13.11;100.00;101109.72;4987815;28;20477;-71
2023/05/08 05:50:27;;;;;;;5.47;2.65;;;;;;;13.12;100.00;101115.00;5050635;28;20029;-71
2023/05/08 05:52:53;;;;;;;5.55;2.38;;;;;;;13.17;100.00;101112.13;5038778;28;20080;-71
2023/05/08 05:55:18;;;;;;;6.13;2.63;;;;;;;13.22;100.00;101116.81;5003923;28;20395;-71
2023/05/08 05:57:44;;;;;;;6.90;2.78;;;;;;;13.25;100.00;101112.63;5019253;28;20048;-71
2023/05/08 06:00:10;;;;;;;3.88;2.20;;;;;;;13.28;100.00;101120.41;5002882;28;20026;-71
2023/05/08 06:02:36;;;;;;;3.78;2.22;;;;;;;13.29;100.00;101116.47;5003087;28;20079;-71
2023/05/08 06:05:01;;;;;;;6.07;2.53;;;;;;;13.33;100.00;101112.00;5002460;28;20050;-71
2023/05/08 06:07:27;;;;;;;7.82;2.30;;;;;;;13.37;100.00;101119.47;5002801;28;20029;-71
2023/05/08 06:09:53;;;;;;;7.18;3.05;;;;;;;13.41;100.00;101114.13;5002541;28;20029;-71
2023/05/08 06:12:19;;;;;;;4.97;2.45;;;;;;;13.41;100.00;101119.69;4996166;28;20022;-71
2023/05/08 06:14:44;;;;;;;7.22;2.47;;;;;;;13.44;100.00;101121.06;5009353;28;20397;-71
2023/05/08 06:17:10;;;;;;;5.13;2.20;;;;;;;13.46;100.00;101129.97;5022344;28;20038;-71
2023/05/08 06:19:36;;;;;;;7.82;2.80;;;;;;;13.51;100.00;101122.38;4989249;28;20029;-71
2023/05/08 06:22:01;;;;;;;7.95;3.03;;;;;;;13.55;100.00;101114.22;5005757;28;20037;-71
2023/05/08 06:24:27;;;;;;;6.20;2.80;;;;;;;13.56;100.00;101135.41;5021967;28;20426;-71
2023/05/08 06:26:52;;;;;;;5.93;2.60;;;;;;;13.55;100.00;101133.75;5008902;28;20026;-71
2023/05/08 06:29:18;;;;;;;5.63;2.80;;;;;;;13.57;100.00;101137.09;5002342;28;20025;-71
2023/05/08 06:31:43;;;;;;;5.00;2.40;;;;;;;13.61;100.00;101136.16;5002251;28;20189;-71
2023/05/08 06:34:09;;;;;;;6.82;3.13;;;;;;;13.61;100.00;101136.16;4969620;28;20386;-71
2023/05/08 06:36:35;;;;;;;4.68;2.60;;;;;;;13.63;100.00;101145.09;5021711;28;20164;-71
2023/05/08 06:39:03;;;;;;;6.50;2.58;;;;;;;13.65;100.00;101147.59;5019450;28;20033;-71
2023/05/08 06:41:28;;;;;;;7.20;2.60;;;;;;;13.66;100.00;101149.25;5022381;28;20034;-71
2023/05/08 06:43:54;;;;;;;10.40;2.90;;;;;;;13.66;100.00;101152.03;5020300;28;20026;-71
2023/05/08 06:46:20;;;;;;;5.60;2.72;;;;;;;13.68;100.00;101149.78;5023464;28;20048;-71
2023/05/08 06:48:46;;;;;;;5.40;2.88;;;;;;;13.70;100.00;101141.09;5003346;28;20030;-71
2023/05/08 06:51:11;;;;;;;3.63;2.45;;;;;;;13.72;100.00;101138.84;5018324;28;20036;-72
2023/05/08 06:53:37;;;;;;;6.00;2.95;;;;;;;13.71;100.00;101132.44;4985521;28;20032;-72
2023/05/08 06:56:02;;;;;;;6.60;2.47;;;;;;;13.72;100.00;101130.47;5001868;28;20077;-72
2023/05/08 06:58:30;;;;;;;9.32;2.75;;;;;;;13.72;100.00;101130.47;5001921;28;20486;-72
2023/05/08 07:00:55;;;;;;;7.13;2.90;;;;;;;13.71;100.00;101131.59;4986139;28;20033;-72
2023/05/08 07:03:21;;;;;;;6.07;2.63;;;;;;;13.72;100.00;101131.28;5035223;28;20034;-72
2023/05/08 07:05:46;;;;;;;4.88;2.60;;;;;;;13.72;100.00;101124.88;5037664;28;20046;-72
2023/05/08 07:08:12;;;;;;;5.68;2.13;;;;;;;13.72;100.00;101125.69;5019438;28;20037;-72
2023/05/08 07:10:37;;;;;;;5.07;2.40;;;;;;;13.73;100.00;101121.78;5001870;28;20030;-72
2023/05/08 07:13:03;;;;;;;6.82;3.03;;;;;;;13.74;100.00;101122.63;5002599;28;20030;-72
2023/05/08 07:15:30;;;;;;;5.65;2.78;;;;;;;13.75;100.00;101129.84;5019007;28;20053;-72
2023/05/08 07:17:56;;;;;;;6.93;2.72;;;;;;;13.74;100.00;101131.81;5017345;28;20149;-72
2023/05/08 07:20:23;;;;;;;4.68;2.83;;;;;;;13.74;100.00;101129.03;5017906;28;20038;-72
2023/05/08 07:22:48;;;;;;;5.53;2.72;;;;;;;13.75;100.00;101135.44;4985504;28;20394;-72
2023/05/08 07:25:14;;;;;;;6.18;2.70;;;;;;;13.75;100.00;101136.25;5021196;28;20029;-72
2023/05/08 07:27:40;;;;;;;5.65;2.90;;;;;;;13.74;100.00;101133.78;5021190;28;20060;-72
2023/05/08 07:30:06;;;;;;;6.53;2.72;;;;;;;13.73;100.00;101132.94;5001207;28;20026;-72
2023/05/08 07:32:32;;;;;;;4.70;2.80;;;;;;;13.75;100.00;101136.25;5020401;28;20634;-72
2023/05/08 07:34:57;;;;;;;6.30;3.08;;;;;;;13.77;100.00;101144.34;5036947;28;20030;-72
2023/05/08 07:37:23;;;;;;;5.88;2.53;;;;;;;13.76;100.00;101142.66;5018172;28;20033;-72
2023/05/08 07:39:48;;;;;;;7.18;2.85;;;;;;;13.76;100.00;101146.31;5013689;28;20025;-72
2023/05/08 07:42:14;;;;;;;7.18;2.80;;;;;;;13.77;100.00;101141.56;5037305;28;20030;-72
2023/05/08 07:44:39;;;;;;;6.50;2.90;;;;;;;13.77;100.00;101155.53;5004334;28;20037;-72
2023/05/08 07:47:05;;;;;;;8.52;2.85;;;;;;;13.79;100.00;101154.09;5026482;28;20037;-72
2023/05/08 07:49:30;;;;;;;6.25;2.72;;;;;;;13.79;100.00;101147.66;5000695;28;20026;-72
2023/05/08 07:51:56;;;;;;;9.50;2.63;;;;;;;13.80;100.00;101155.75;5018450;28;20037;-72
2023/05/08 07:54:21;;;;;;;5.78;2.90;;;;;;;13.83;100.00;101157.09;4984746;28;20094;-72
2023/05/08 07:56:46;;;;;;;9.40;3.67;;;;;;;13.85;100.00;101152.06;5051064;28;20045;-72
2023/05/08 07:59:12;;;;;;;8.38;2.97;;;;;;;13.87;100.00;101160.94;5020379;28;20363;-72
2023/05/08 08:01:38;;;;;;;8.57;3.45;;;;;;;13.91;100.00;101155.59;5035494;28;20030;-72
2023/05/08 08:04:04;;;;;;;5.38;2.88;;;;;;;13.92;100.00;101158.09;5020715;28;20026;-72
2023/05/08 08:06:30;;;;;;;5.35;3.03;;;;;;;13.92;100.00;101149.72;5020762;28;20564;-71
2023/05/08 08:08:56;;;;;;;5.93;3.30;;;;;;;13.97;100.00;101149.63;5021261;28;20430;-72
2023/05/08 08:11:21;;;;;;;4.90;2.80;;;;;;;14.02;100.00;101148.75;5004749;28;20056;-71
2023/05/08 08:13:47;;;;;;;5.78;3.00;;;;;;;14.07;100.00;101143.91;4989397;28;20045;-72
2023/05/08 08:16:12;;;;;;;8.40;3.70;;;;;;;14.16;100.00;101154.41;5020917;28;20029;-72
2023/05/08 08:18:38;;;;;;;10.05;3.63;;;;;;;14.22;100.00;101147.59;5023866;28;20034;-72
2023/05/08 08:21:05;;;;;;;11.18;4.00;;;;;;;14.28;100.00;101144.41;4988488;28;20033;-72
2023/05/08 08:23:30;;;;;;;7.20;3.28;;;;;;;14.35;100.00;101144.03;5027664;28;20038;-71
2023/05/08 08:25:56;;;;;;;7.03;3.85;;;;;;;14.41;100.00;101147.59;5015080;28;20068;-72
2023/05/08 08:28:21;;;;;;;7.50;3.78;;;;;;;14.47;100.00;101138.81;5000316;28;20030;-71
2023/05/08 08:30:47;;;;;;;7.30;3.75;;;;;;;14.52;100.00;101147.13;5000123;28;20026;-72
2023/05/08 08:33:12;;;;;;;8.50;3.92;;;;;;;14.61;100.00;101154.81;5016192;28;20034;-72
2023/05/08 08:35:38;;;;;;;7.50;4.22;;;;;;;14.69;100.00;101148.53;4983917;28;20042;-71
2023/05/08 08:38:03;;;;;;;7.57;3.65;;;;;;;14.77;100.00;101152.59;5024346;28;20441;-72
2023/05/08 08:40:29;;;;;;;7.85;3.10;;;;;;;14.84;100.00;101147.44;5012942;28;20026;-71
2023/05/08 08:42:54;;;;;;;11.48;4.30;;;;;;;14.94;100.00;101152.84;4983643;28;20113;-72
2023/05/08 08:45:20;;;;;;;9.35;4.68;;;;;;;15.00;100.00;101159.19;4983875;28;20112;-72
2023/05/08 08:47:45;;;;;;;8.93;4.03;;;;;;;15.08;100.00;101161.25;5005345;28;20049;-72
2023/05/08 08:50:12;;;;;;;7.85;3.33;;;;;;;15.14;100.00;101163.63;5045496;28;20041;-71
2023/05/08 08:52:56;;;;;;;11.63;4.63;;;;;;;15.25;100.00;101167.06;5016310;28;20052;-72
2023/05/08 08:55:22;;;;;;;11.27;4.40;;;;;;;15.34;100.00;101164.38;5017105;28;20122;-72
2023/05/08 08:57:59;;;;;;;9.55;3.25;;;;;;;15.41;100.00;101164.81;5016007;28;20030;-72
2023/05/08 09:00:27;;;;;;;10.55;4.25;;;;;;;15.51;100.00;101172.16;5019793;28;20060;-72
2023/05/08 09:02:52;;;;;;;8.18;3.03;;;;;;;15.57;100.00;101168.09;5016914;28;20458;-72
2023/05/08 09:05:19;;;;;;;8.88;3.70;;;;;;;15.65;100.00;101178.56;5016905;28;20042;-72
2023/05/08 09:07:45;;;;;;;7.65;3.10;;;;;;;15.72;100.00;101175.41;4999543;28;20033;-72
2023/05/08 09:10:14;;;;;;;13.38;4.80;;;;;;;15.79;100.00;101171.03;5017070;28;20036;-72
2023/05/08 09:12:40;;;;;;;10.98;5.32;;;;;;;15.83;100.00;101169.25;4984859;28;20040;-72
2023/05/08 09:15:06;;;;;;;11.90;4.72;;;;;;;15.92;100.00;101162.94;5008340;28;20457;-72
2023/05/08 09:17:31;;;;;;;7.28;4.43;;;;;;;15.98;100.00;101151.28;5032746;28;20029;-72
2023/05/08 09:19:56;;;;;;;7.00;3.28;;;;;;;16.05;100.00;101150.88;5015283;28;20017;-72
2023/05/08 09:22:23;;;;;;;12.18;4.30;;;;;;;16.13;100.00;101152.06;4999280;28;20398;-72
2023/05/08 09:24:55;;;;;;;9.40;3.90;;;;;;;16.22;100.00;101141.78;4967074;28;20079;-72
2023/05/08 09:27:22;;;;;;;10.07;4.50;;;;;;;16.33;100.00;101147.97;5015190;28;20045;-72
2023/05/08 09:30:05;;;;;;;6.45;2.97;;;;;;;16.42;100.00;101154.47;4999245;28;20448;-72
2023/05/08 09:32:31;;;;;;;7.38;3.75;;;;;;;16.54;100.00;101161.13;4999313;28;20030;-72
2023/05/08 09:34:56;;;;;;;7.10;3.95;;;;;;;16.68;100.00;101152.66;4998920;28;20061;-72
2023/05/08 09:37:22;;;;;;;7.47;3.45;;;;;;;16.79;100.00;101153.25;5015351;28;20037;-72
2023/05/08 09:39:47;;;;;;;6.95;2.67;;;;;;;16.90;100.00;101151.03;5026210;28;20379;-72
2023/05/08 09:42:13;;;;;;;5.07;2.92;;;;;;;17.03;100.00;101150.13;5035050;28;20026;-72
2023/05/08 09:44:52;;;;;;;6.85;2.83;;;;;;;17.16;100.00;101156.75;4983061;28;20021;-72
2023/05/08 09:47:20;;;;;;;5.20;2.42;;;;;;;17.29;100.00;101146.59;5047468;28;20060;-72
2023/05/08 09:49:58;;;;;;;5.88;2.70;;;;;;;17.40;100.00;101131.94;4998806;28;20042;-72
2023/05/08 09:52:25;;;;;;;6.38;2.75;;;;;;;17.52;100.00;101128.50;4999016;28;20097;-72
2023/05/08 09:55:07;;;;;;;6.85;2.78;;;;;;;17.67;100.00;101115.16;5021805;28;20584;-72
2023/05/08 09:57:38;;;;;;;3.90;2.17;;;;;;;17.80;100.00;101106.63;4982838;28;20387;-72
2023/05/08 10:00:13;;;;;;;4.97;1.95;;;;;;;17.95;100.00;101104.50;5032970;28;20029;-72
2023/05/08 10:02:52;;;;;;;4.65;1.70;;;;;;;18.12;100.00;101087.63;5022223;28;20038;-72
2023/05/08 10:05:28;;;;;;;4.80;1.98;;;;;;;18.28;100.00;101087.97;5027719;28;20042;-72
2023/05/08 10:07:54;;;;;;;4.50;1.75;;;;;;;18.42;100.00;101079.34;4998952;28;20045;-72
2023/05/08 10:10:26;;;;;;;2.53;1.60;;;;;;;18.59;100.00;101089.72;5015390;28;20125;-73
2023/05/08 10:12:56;;;;;;;3.17;1.90;;;;;;;18.76;100.00;101075.63;5014834;28;20060;-72
2023/05/08 10:15:22;;;;;;;3.25;1.25;;;;;;;18.92;100.00;101073.94;5014929;28;20037;-72
2023/05/08 10:17:59;;;;;;;1.55;1.13;;;;;;;19.09;100.00;101089.09;4979178;28;20038;-72
2023/05/08 10:20:24;;;;;;;3.78;1.13;;;;;;;19.26;100.00;101080.56;5011748;28;20030;-72
2023/05/08 10:22:50;;;;;;;4.10;1.25;;;;;;;19.41;100.00;101074.34;4998883;28;20033;-72
2023/05/08 10:25:16;;;;;;;6.18;1.35;;;;;;;19.58;100.00;101069.75;4998820;28;20022;-72
2023/05/08 10:27:49;;;;;;;3.83;1.10;;;;;;;19.73;100.00;101072.03;4995588;28;20494;-72
2023/05/08 10:30:15;;;;;;;2.95;1.13;;;;;;;19.95;100.00;101075.69;4980970;28;20035;-72
2023/05/08 10:32:44;;;;;;;3.95;1.48;;;;;;;20.11;100.00;101076.69;4998712;28;20033;-72
2023/05/08 10:35:10;;;;;;;3.63;1.40;;;;;;;20.28;100.00;101076.53;5014763;28;20065;-72
2023/05/08 10:37:36;;;;;;;6.05;1.08;;;;;;;20.50;100.00;101082.94;5015029;28;20030;-72
2023/05/08 10:40:03;;;;;;;3.80;1.00;;;;;;;20.70;100.00;101073.66;5002285;28;20034;-72
2023/05/08 10:42:29;;;;;;;4.72;1.00;;;;;;;20.89;100.00;101066.59;4989484;28;20037;-72
2023/05/08 10:44:54;;;;;;;3.33;1.20;;;;;;;21.05;100.00;101064.75;4998896;28;20505;-72
2023/05/08 10:47:29;;;;;;;4.72;1.10;;;;;;;21.28;100.00;101067.09;5018199;28;20030;-73
2023/05/08 10:50:19;;;;;;;5.55;1.00;;;;;;;21.40;100.00;101064.31;5019273;28;20029;-73
2023/05/08 10:52:58;;;;;;;2.20;0.90;;;;;;;21.55;100.00;101068.41;5019700;28;20037;-73
2023/05/08 10:55:28;;;;;;;2.65;0.80;;;;;;;21.67;100.00;101073.22;5005331;28;20125;-72
2023/05/08 10:58:05;;;;;;;2.92;0.98;;;;;;;21.76;100.00;101077.56;5018181;28;20064;-72
2023/05/08 11:00:51;;;;;;;3.88;1.17;;;;;;;21.85;100.00;101083.09;4998675;28;20043;-72
2023/05/08 11:03:17;;;;;;;4.05;0.95;;;;;;;21.90;100.00;101085.69;5012583;28;20046;-73
2023/05/08 11:05:47;;;;;;;2.17;0.93;;;;;;;21.92;100.00;101086.13;5005782;28;20097;-72
2023/05/08 11:08:14;;;;;;;4.47;1.20;;;;;;;21.91;100.00;101080.84;5022030;28;20025;-72
2023/05/08 11:10:39;;;;;;;3.50;1.10;;;;;;;21.88;100.00;101079.53;5002370;28;20091;-72
2023/05/08 11:13:06;;;;;;;2.53;1.00;;;;;;;21.84;100.00;101072.94;5005089;28;20033;-73
2023/05/08 11:15:36;;;;;;;3.72;1.00;;;;;;;21.82;100.00;101086.63;5021653;28;20034;-73
2023/05/08 11:18:05;;;;;;;4.00;1.10;;;;;;;21.75;100.00;101080.75;4985848;28;20514;-72
2023/05/08 11:20:38;;;;;;;3.13;1.08;;;;;;;21.69;100.00;101082.19;5005237;28;20104;-72